sensor_id;sensor_type;location;lat;lon;timestamp;P1;durP1;ratioP1;P2;durP2;ratioP2
72882;SDS011;61017;37.812;-122.286;2023-04-06T00:01:00;1.80;;;0.80;;
72882;SDS011;61017;37.812;-122.286;2023-04-06T00:02:31;2.47;;;0.80;;
72882;SDS011;61017;37.812;-122.286;2023-04-06T00:04:03;2.33;;;0.85;;
72882;SDS011;61017;37.812;-122.286;2023-04-06T00:05:35;2.15;;;0.80;;
72882;SDS011;61017;37.812;-122.286;2023-04-06T00:07:06;1.63;;;0.70;;
72882;SDS011;61017;37.812;-122.286;2023-04-06T00:08:38;2.40;;;0.88;;
72882;SDS011;61017;37.812;-122.286;2023-04-06T00:10:10;3.25;;;0.90;;
72882;SDS011;61017;37.812;-122.286;2023-04-06T00:11:41;3.42;;;1.00;;
72882;SDS011;61017;37.812;-122.286;2023-04-06T00:13:13;1.67;;;0.80;;
72882;SDS011;61017;37.812;-122.286;2023-04-06T00:14:45;2.40;;;0.90;;
72882;SDS011;61017;37.812;-122.286;2023-04-06T00:16:16;2.60;;;1.00;;
72882;SDS011;61017;37.812;-122.286;2023-04-06T00:17:48;2.22;;;0.80;;
72882;SDS011;61017;37.812;-122.286;2023-04-06T00:19:19;2.38;;;0.90;;
72882;SDS011;61017;37.812;-122.286;2023-04-06T00:20:51;4.03;;;1.00;;
72882;SDS011;61017;37.812;-122.286;2023-04-06T00:22:23;2.13;;;0.93;;
72882;SDS011;61017;37.812;-122.286;2023-04-06T00:23:54;3.80;;;1.15;;
72882;SDS011;61017;37.812;-122.286;2023-04-06T00:25:26;2.38;;;1.08;;
72882;SDS011;61017;37.812;-122.286;2023-04-06T00:26:58;2.92;;;1.00;;
72882;SDS011;61017;37.812;-122.286;2023-04-06T00:28:29;2.17;;;0.90;;
72882;SDS011;61017;37.812;-122.286;2023-04-06T00:30:01;2.20;;;0.75;;
72882;SDS011;61017;37.812;-122.286;2023-04-06T00:31:34;2.80;;;0.90;;
72882;SDS011;61017;37.812;-122.286;2023-04-06T00:33:05;2.78;;;0.90;;
72882;SDS011;61017;37.812;-122.286;2023-04-06T00:34:37;2.28;;;0.93;;
72882;SDS011;61017;37.812;-122.286;2023-04-06T00:36:09;2.28;;;1.00;;
72882;SDS011;61017;37.812;-122.286;2023-04-06T00:37:40;3.22;;;1.00;;
72882;SDS011;61017;37.812;-122.286;2023-04-06T00:39:12;3.40;;;1.10;;
72882;SDS011;61017;37.812;-122.286;2023-04-06T00:40:43;1.58;;;0.75;;
72882;SDS011;61017;37.812;-122.286;2023-04-06T00:42:15;2.55;;;1.02;;
72882;SDS011;61017;37.812;-122.286;2023-04-06T00:43:46;2.83;;;1.00;;
72882;SDS011;61017;37.812;-122.286;2023-04-06T00:45:18;4.82;;;0.82;;
72882;SDS011;61017;37.812;-122.286;2023-04-06T00:46:50;2.13;;;1.00;;
72882;SDS011;61017;37.812;-122.286;2023-04-06T00:48:22;3.05;;;0.85;;
72882;SDS011;61017;37.812;-122.286;2023-04-06T00:49:53;3.42;;;1.10;;
72882;SDS011;61017;37.812;-122.286;2023-04-06T00:51:25;4.95;;;1.20;;
72882;SDS011;61017;37.812;-122.286;2023-04-06T00:52:58;1.67;;;0.70;;
72882;SDS011;61017;37.812;-122.286;2023-04-06T00:54:30;1.75;;;0.90;;
72882;SDS011;61017;37.812;-122.286;2023-04-06T00:56:01;2.97;;;0.98;;
72882;SDS011;61017;37.812;-122.286;2023-04-06T00:57:33;1.92;;;0.90;;
72882;SDS011;61017;37.812;-122.286;2023-04-06T00:59:04;2.92;;;1.08;;
72882;SDS011;61017;37.812;-122.286;2023-04-06T01:00:36;4.50;;;0.85;;
72882;SDS011;61017;37.812;-122.286;2023-04-06T01:02:08;3.25;;;1.00;;
72882;SDS011;61017;37.812;-122.286;2023-04-06T01:03:40;2.95;;;1.10;;
72882;SDS011;61017;37.812;-122.286;2023-04-06T01:05:11;4.15;;;1.27;;
72882;SDS011;61017;37.812;-122.286;2023-04-06T01:06:43;1.98;;;0.82;;
72882;SDS011;61017;37.812;-122.286;2023-04-06T01:08:15;2.40;;;0.95;;
72882;SDS011;61017;37.812;-122.286;2023-04-06T01:09:47;3.08;;;1.00;;
72882;SDS011;61017;37.812;-122.286;2023-04-06T01:11:19;3.28;;;1.02;;
72882;SDS011;61017;37.812;-122.286;2023-04-06T01:12:50;2.53;;;0.95;;
72882;SDS011;61017;37.812;-122.286;2023-04-06T01:14:22;2.40;;;0.80;;
72882;SDS011;61017;37.812;-122.286;2023-04-06T01:15:54;2.15;;;0.90;;
72882;SDS011;61017;37.812;-122.286;2023-04-06T01:17:26;3.78;;;1.10;;
72882;SDS011;61017;37.812;-122.286;2023-04-06T01:18:58;1.77;;;0.90;;
72882;SDS011;61017;37.812;-122.286;2023-04-06T01:20:29;3.25;;;1.00;;
72882;SDS011;61017;37.812;-122.286;2023-04-06T01:22:01;2.05;;;0.93;;
72882;SDS011;61017;37.812;-122.286;2023-04-06T01:23:32;2.95;;;1.00;;
72882;SDS011;61017;37.812;-122.286;2023-04-06T01:25:04;2.53;;;1.05;;
72882;SDS011;61017;37.812;-122.286;2023-04-06T01:26:40;2.45;;;1.00;;
72882;SDS011;61017;37.812;-122.286;2023-04-06T01:28:12;2.95;;;0.90;;
72882;SDS011;61017;37.812;-122.286;2023-04-06T01:29:43;2.72;;;1.00;;
72882;SDS011;61017;37.812;-122.286;2023-04-06T01:31:15;2.50;;;1.00;;
72882;SDS011;61017;37.812;-122.286;2023-04-06T01:32:46;1.88;;;0.82;;
72882;SDS011;61017;37.812;-122.286;2023-04-06T01:34:18;2.75;;;0.82;;
72882;SDS011;61017;37.812;-122.286;2023-04-06T01:35:49;2.40;;;0.82;;
72882;SDS011;61017;37.812;-122.286;2023-04-06T01:37:21;2.15;;;1.00;;
72882;SDS011;61017;37.812;-122.286;2023-04-06T01:38:52;3.40;;;1.20;;
72882;SDS011;61017;37.812;-122.286;2023-04-06T01:40:24;3.10;;;0.90;;
72882;SDS011;61017;37.812;-122.286;2023-04-06T01:41:56;2.97;;;1.10;;
72882;SDS011;61017;37.812;-122.286;2023-04-06T01:43:28;3.60;;;1.00;;
72882;SDS011;61017;37.812;-122.286;2023-04-06T01:44:59;3.97;;;0.93;;
72882;SDS011;61017;37.812;-122.286;2023-04-06T01:46:31;3.42;;;1.00;;
72882;SDS011;61017;37.812;-122.286;2023-04-06T01:48:02;2.35;;;1.00;;
72882;SDS011;61017;37.812;-122.286;2023-04-06T01:49:34;2.50;;;1.10;;
72882;SDS011;61017;37.812;-122.286;2023-04-06T01:51:05;2.97;;;0.98;;
72882;SDS011;61017;37.812;-122.286;2023-04-06T01:52:37;2.33;;;1.08;;
72882;SDS011;61017;37.812;-122.286;2023-04-06T01:54:09;1.90;;;1.00;;
72882;SDS011;61017;37.812;-122.286;2023-04-06T01:55:40;3.63;;;1.20;;
72882;SDS011;61017;37.812;-122.286;2023-04-06T01:57:12;2.38;;;0.90;;
72882;SDS011;61017;37.812;-122.286;2023-04-06T01:58:43;2.50;;;1.10;;
72882;SDS011;61017;37.812;-122.286;2023-04-06T02:00:15;2.40;;;1.00;;
72882;SDS011;61017;37.812;-122.286;2023-04-06T02:01:47;4.03;;;1.00;;
72882;SDS011;61017;37.812;-122.286;2023-04-06T02:03:18;2.05;;;0.90;;
72882;SDS011;61017;37.812;-122.286;2023-04-06T02:04:50;3.40;;;1.00;;
72882;SDS011;61017;37.812;-122.286;2023-04-06T02:06:21;2.67;;;1.02;;
72882;SDS011;61017;37.812;-122.286;2023-04-06T02:07:53;2.88;;;0.95;;
72882;SDS011;61017;37.812;-122.286;2023-04-06T02:09:24;3.25;;;1.00;;
72882;SDS011;61017;37.812;-122.286;2023-04-06T02:10:56;3.05;;;1.10;;
72882;SDS011;61017;37.812;-122.286;2023-04-06T02:12:28;2.22;;;0.90;;
72882;SDS011;61017;37.812;-122.286;2023-04-06T02:13:59;2.50;;;0.93;;
72882;SDS011;61017;37.812;-122.286;2023-04-06T02:15:31;2.22;;;0.95;;
72882;SDS011;61017;37.812;-122.286;2023-04-06T02:17:03;4.07;;;1.10;;
72882;SDS011;61017;37.812;-122.286;2023-04-06T02:18:34;3.35;;;1.30;;
72882;SDS011;61017;37.812;-122.286;2023-04-06T02:20:06;3.05;;;1.10;;
72882;SDS011;61017;37.812;-122.286;2023-04-06T02:21:38;4.38;;;1.20;;
72882;SDS011;61017;37.812;-122.286;2023-04-06T02:23:09;3.95;;;1.27;;
72882;SDS011;61017;37.812;-122.286;2023-04-06T02:24:41;3.85;;;1.08;;
72882;SDS011;61017;37.812;-122.286;2023-04-06T02:26:13;4.45;;;1.10;;
72882;SDS011;61017;37.812;-122.286;2023-04-06T02:27:45;4.55;;;1.33;;
72882;SDS011;61017;37.812;-122.286;2023-04-06T02:29:16;3.55;;;1.30;;
72882;SDS011;61017;37.812;-122.286;2023-04-06T02:30:48;4.85;;;1.10;;
72882;SDS011;61017;37.812;-122.286;2023-04-06T02:32:19;3.92;;;1.10;;
72882;SDS011;61017;37.812;-122.286;2023-04-06T02:33:51;3.55;;;1.00;;
72882;SDS011;61017;37.812;-122.286;2023-04-06T02:35:22;5.05;;;1.20;;
72882;SDS011;61017;37.812;-122.286;2023-04-06T02:36:56;4.20;;;1.10;;
72882;SDS011;61017;37.812;-122.286;2023-04-06T02:38:27;3.70;;;1.17;;
72882;SDS011;61017;37.812;-122.286;2023-04-06T02:39:59;3.38;;;1.10;;
72882;SDS011;61017;37.812;-122.286;2023-04-06T02:41:31;3.88;;;1.10;;
72882;SDS011;61017;37.812;-122.286;2023-04-06T02:43:02;4.13;;;1.10;;
72882;SDS011;61017;37.812;-122.286;2023-04-06T02:44:34;3.80;;;1.38;;
72882;SDS011;61017;37.812;-122.286;2023-04-06T02:46:06;4.18;;;1.27;;
72882;SDS011;61017;37.812;-122.286;2023-04-06T02:47:37;4.30;;;1.30;;
72882;SDS011;61017;37.812;-122.286;2023-04-06T02:49:09;4.75;;;1.17;;
72882;SDS011;61017;37.812;-122.286;2023-04-06T02:50:40;3.38;;;1.05;;
72882;SDS011;61017;37.812;-122.286;2023-04-06T02:52:12;4.82;;;1.20;;
72882;SDS011;61017;37.812;-122.286;2023-04-06T02:53:43;4.50;;;1.30;;
72882;SDS011;61017;37.812;-122.286;2023-04-06T02:55:15;6.28;;;1.30;;
72882;SDS011;61017;37.812;-122.286;2023-04-06T02:56:46;3.67;;;1.10;;
72882;SDS011;61017;37.812;-122.286;2023-04-06T02:58:18;2.97;;;1.10;;
72882;SDS011;61017;37.812;-122.286;2023-04-06T02:59:49;3.45;;;1.10;;
72882;SDS011;61017;37.812;-122.286;2023-04-06T03:01:21;4.72;;;1.17;;
72882;SDS011;61017;37.812;-122.286;2023-04-06T03:02:53;4.45;;;1.30;;
72882;SDS011;61017;37.812;-122.286;2023-04-06T03:04:24;4.43;;;1.30;;
72882;SDS011;61017;37.812;-122.286;2023-04-06T03:05:56;2.70;;;1.08;;
72882;SDS011;61017;37.812;-122.286;2023-04-06T03:07:27;3.80;;;1.10;;
72882;SDS011;61017;37.812;-122.286;2023-04-06T03:08:59;4.45;;;1.15;;
72882;SDS011;61017;37.812;-122.286;2023-04-06T03:10:31;2.92;;;1.10;;
72882;SDS011;61017;37.812;-122.286;2023-04-06T03:12:02;2.67;;;1.08;;
72882;SDS011;61017;37.812;-122.286;2023-04-06T03:13:35;4.15;;;1.20;;
72882;SDS011;61017;37.812;-122.286;2023-04-06T03:15:08;3.60;;;1.30;;
72882;SDS011;61017;37.812;-122.286;2023-04-06T03:16:40;4.60;;;1.40;;
72882;SDS011;61017;37.812;-122.286;2023-04-06T03:18:11;4.15;;;1.23;;
72882;SDS011;61017;37.812;-122.286;2023-04-06T03:19:43;4.05;;;1.35;;
72882;SDS011;61017;37.812;-122.286;2023-04-06T03:21:14;4.60;;;1.15;;
72882;SDS011;61017;37.812;-122.286;2023-04-06T03:22:46;5.55;;;1.55;;
72882;SDS011;61017;37.812;-122.286;2023-04-06T03:24:17;3.45;;;1.10;;
72882;SDS011;61017;37.812;-122.286;2023-04-06T03:25:49;2.55;;;1.00;;
72882;SDS011;61017;37.812;-122.286;2023-04-06T03:27:20;5.57;;;1.10;;
72882;SDS011;61017;37.812;-122.286;2023-04-06T03:28:52;6.13;;;1.30;;
72882;SDS011;61017;37.812;-122.286;2023-04-06T03:30:23;3.92;;;1.30;;
72882;SDS011;61017;37.812;-122.286;2023-04-06T03:31:55;5.75;;;1.17;;
72882;SDS011;61017;37.812;-122.286;2023-04-06T03:33:27;4.18;;;1.48;;
72882;SDS011;61017;37.812;-122.286;2023-04-06T03:34:58;3.50;;;1.25;;
72882;SDS011;61017;37.812;-122.286;2023-04-06T03:36:30;3.97;;;1.15;;
72882;SDS011;61017;37.812;-122.286;2023-04-06T03:38:01;3.40;;;1.10;;
72882;SDS011;61017;37.812;-122.286;2023-04-06T03:39:33;2.77;;;1.10;;
72882;SDS011;61017;37.812;-122.286;2023-04-06T03:41:05;4.80;;;1.30;;
72882;SDS011;61017;37.812;-122.286;2023-04-06T03:42:37;4.22;;;1.20;;
72882;SDS011;61017;37.812;-122.286;2023-04-06T03:44:08;4.75;;;1.50;;
72882;SDS011;61017;37.812;-122.286;2023-04-06T03:45:40;2.45;;;1.08;;
72882;SDS011;61017;37.812;-122.286;2023-04-06T03:47:12;4.32;;;1.00;;
72882;SDS011;61017;37.812;-122.286;2023-04-06T03:48:45;3.20;;;1.20;;
72882;SDS011;61017;37.812;-122.286;2023-04-06T03:50:19;3.58;;;1.00;;
72882;SDS011;61017;37.812;-122.286;2023-04-06T03:51:50;4.00;;;1.20;;
72882;SDS011;61017;37.812;-122.286;2023-04-06T03:53:23;5.15;;;1.27;;
72882;SDS011;61017;37.812;-122.286;2023-04-06T03:54:54;3.97;;;1.20;;
72882;SDS011;61017;37.812;-122.286;2023-04-06T03:56:26;3.55;;;1.20;;
72882;SDS011;61017;37.812;-122.286;2023-04-06T03:57:57;4.60;;;1.30;;
72882;SDS011;61017;37.812;-122.286;2023-04-06T03:59:32;4.95;;;1.33;;
72882;SDS011;61017;37.812;-122.286;2023-04-06T04:01:04;4.85;;;1.15;;
72882;SDS011;61017;37.812;-122.286;2023-04-06T04:02:35;6.38;;;1.30;;
72882;SDS011;61017;37.812;-122.286;2023-04-06T04:04:07;2.58;;;1.10;;
72882;SDS011;61017;37.812;-122.286;2023-04-06T04:05:38;4.13;;;1.20;;
72882;SDS011;61017;37.812;-122.286;2023-04-06T04:07:10;6.38;;;1.25;;
72882;SDS011;61017;37.812;-122.286;2023-04-06T04:08:41;3.60;;;1.10;;
72882;SDS011;61017;37.812;-122.286;2023-04-06T04:10:14;3.13;;;1.20;;
72882;SDS011;61017;37.812;-122.286;2023-04-06T04:11:45;4.13;;;1.20;;
72882;SDS011;61017;37.812;-122.286;2023-04-06T04:13:17;2.85;;;1.10;;
72882;SDS011;61017;37.812;-122.286;2023-04-06T04:14:48;4.30;;;1.30;;
72882;SDS011;61017;37.812;-122.286;2023-04-06T04:16:20;3.75;;;1.10;;
72882;SDS011;61017;37.812;-122.286;2023-04-06T04:17:52;4.63;;;1.10;;
72882;SDS011;61017;37.812;-122.286;2023-04-06T04:19:23;2.85;;;1.10;;
72882;SDS011;61017;37.812;-122.286;2023-04-06T04:20:55;5.35;;;1.42;;
72882;SDS011;61017;37.812;-122.286;2023-04-06T04:22:30;3.53;;;1.10;;
72882;SDS011;61017;37.812;-122.286;2023-04-06T04:24:01;5.20;;;1.30;;
72882;SDS011;61017;37.812;-122.286;2023-04-06T04:25:33;3.65;;;1.30;;
72882;SDS011;61017;37.812;-122.286;2023-04-06T04:27:05;4.18;;;1.38;;
72882;SDS011;61017;37.812;-122.286;2023-04-06T04:28:36;3.17;;;1.30;;
72882;SDS011;61017;37.812;-122.286;2023-04-06T04:30:08;2.80;;;1.02;;
72882;SDS011;61017;37.812;-122.286;2023-04-06T04:31:39;3.22;;;1.10;;
72882;SDS011;61017;37.812;-122.286;2023-04-06T04:33:11;3.47;;;1.20;;
72882;SDS011;61017;37.812;-122.286;2023-04-06T04:34:43;3.65;;;1.15;;
72882;SDS011;61017;37.812;-122.286;2023-04-06T04:36:14;3.78;;;1.20;;
72882;SDS011;61017;37.812;-122.286;2023-04-06T04:37:46;2.42;;;1.20;;
72882;SDS011;61017;37.812;-122.286;2023-04-06T04:39:17;2.97;;;1.20;;
72882;SDS011;61017;37.812;-122.286;2023-04-06T04:40:49;4.30;;;1.25;;
72882;SDS011;61017;37.812;-122.286;2023-04-06T04:42:20;2.92;;;1.10;;
72882;SDS011;61017;37.812;-122.286;2023-04-06T04:43:52;2.58;;;1.10;;
72882;SDS011;61017;37.812;-122.286;2023-04-06T04:45:24;2.53;;;0.90;;
72882;SDS011;61017;37.812;-122.286;2023-04-06T04:46:55;2.35;;;1.02;;
72882;SDS011;61017;37.812;-122.286;2023-04-06T04:48:27;3.05;;;1.10;;
72882;SDS011;61017;37.812;-122.286;2023-04-06T04:49:58;2.83;;;1.08;;
72882;SDS011;61017;37.812;-122.286;2023-04-06T04:51:30;2.25;;;1.00;;
72882;SDS011;61017;37.812;-122.286;2023-04-06T04:53:02;3.08;;;0.90;;
72882;SDS011;61017;37.812;-122.286;2023-04-06T04:54:33;3.88;;;1.02;;
72882;SDS011;61017;37.812;-122.286;2023-04-06T04:56:07;2.90;;;1.00;;
72882;SDS011;61017;37.812;-122.286;2023-04-06T04:57:38;4.00;;;0.98;;
72882;SDS011;61017;37.812;-122.286;2023-04-06T04:59:10;2.67;;;0.95;;
72882;SDS011;61017;37.812;-122.286;2023-04-06T05:00:42;3.92;;;1.05;;
72882;SDS011;61017;37.812;-122.286;2023-04-06T05:02:14;2.83;;;1.02;;
72882;SDS011;61017;37.812;-122.286;2023-04-06T05:03:45;3.22;;;1.10;;
72882;SDS011;61017;37.812;-122.286;2023-04-06T05:05:17;3.05;;;1.00;;
72882;SDS011;61017;37.812;-122.286;2023-04-06T05:06:48;2.38;;;0.82;;
72882;SDS011;61017;37.812;-122.286;2023-04-06T05:08:20;2.58;;;0.88;;
72882;SDS011;61017;37.812;-122.286;2023-04-06T05:09:52;2.72;;;1.00;;
72882;SDS011;61017;37.812;-122.286;2023-04-06T05:11:24;2.53;;;1.08;;
72882;SDS011;61017;37.812;-122.286;2023-04-06T05:12:56;3.28;;;1.10;;
72882;SDS011;61017;37.812;-122.286;2023-04-06T05:14:28;1.88;;;0.82;;
72882;SDS011;61017;37.812;-122.286;2023-04-06T05:15:59;2.63;;;0.90;;
72882;SDS011;61017;37.812;-122.286;2023-04-06T05:17:31;2.38;;;1.00;;
72882;SDS011;61017;37.812;-122.286;2023-04-06T05:19:03;3.00;;;1.00;;
72882;SDS011;61017;37.812;-122.286;2023-04-06T05:20:36;2.03;;;0.90;;
72882;SDS011;61017;37.812;-122.286;2023-04-06T05:22:10;2.17;;;1.00;;
72882;SDS011;61017;37.812;-122.286;2023-04-06T05:23:41;3.45;;;1.00;;
72882;SDS011;61017;37.812;-122.286;2023-04-06T05:25:13;2.35;;;1.02;;
72882;SDS011;61017;37.812;-122.286;2023-04-06T05:26:45;2.80;;;0.95;;
72882;SDS011;61017;37.812;-122.286;2023-04-06T05:28:17;2.38;;;1.02;;
72882;SDS011;61017;37.812;-122.286;2023-04-06T05:29:49;2.67;;;0.90;;
72882;SDS011;61017;37.812;-122.286;2023-04-06T05:31:20;2.90;;;0.80;;
72882;SDS011;61017;37.812;-122.286;2023-04-06T05:32:52;2.40;;;0.90;;
72882;SDS011;61017;37.812;-122.286;2023-04-06T05:34:24;2.97;;;0.97;;
72882;SDS011;61017;37.812;-122.286;2023-04-06T05:35:56;2.20;;;0.90;;
72882;SDS011;61017;37.812;-122.286;2023-04-06T05:37:27;2.75;;;0.82;;
72882;SDS011;61017;37.812;-122.286;2023-04-06T05:39:00;1.98;;;0.90;;
72882;SDS011;61017;37.812;-122.286;2023-04-06T05:40:31;2.35;;;1.10;;
72882;SDS011;61017;37.812;-122.286;2023-04-06T05:42:04;2.85;;;1.10;;
72882;SDS011;61017;37.812;-122.286;2023-04-06T05:43:36;2.40;;;1.00;;
72882;SDS011;61017;37.812;-122.286;2023-04-06T05:45:08;2.08;;;0.90;;
72882;SDS011;61017;37.812;-122.286;2023-04-06T05:48:12;1.95;;;0.80;;
72882;SDS011;61017;37.812;-122.286;2023-04-06T05:49:43;1.92;;;0.80;;
72882;SDS011;61017;37.812;-122.286;2023-04-06T05:51:15;3.25;;;1.15;;
72882;SDS011;61017;37.812;-122.286;2023-04-06T05:52:47;2.30;;;1.00;;
72882;SDS011;61017;37.812;-122.286;2023-04-06T05:54:18;2.50;;;0.90;;
72882;SDS011;61017;37.812;-122.286;2023-04-06T05:55:50;2.28;;;0.95;;
72882;SDS011;61017;37.812;-122.286;2023-04-06T05:57:21;1.90;;;0.80;;
72882;SDS011;61017;37.812;-122.286;2023-04-06T05:58:53;2.00;;;0.80;;
72882;SDS011;61017;37.812;-122.286;2023-04-06T06:00:24;1.67;;;0.82;;
72882;SDS011;61017;37.812;-122.286;2023-04-06T06:01:56;3.80;;;1.05;;
72882;SDS011;61017;37.812;-122.286;2023-04-06T06:03:28;1.98;;;0.82;;
72882;SDS011;61017;37.812;-122.286;2023-04-06T06:04:59;2.78;;;0.93;;
72882;SDS011;61017;37.812;-122.286;2023-04-06T06:06:31;2.53;;;0.90;;
72882;SDS011;61017;37.812;-122.286;2023-04-06T06:08:02;2.75;;;0.93;;
72882;SDS011;61017;37.812;-122.286;2023-04-06T06:09:34;2.38;;;1.00;;
72882;SDS011;61017;37.812;-122.286;2023-04-06T06:11:05;1.23;;;0.73;;
72882;SDS011;61017;37.812;-122.286;2023-04-06T06:12:37;2.20;;;0.90;;
72882;SDS011;61017;37.812;-122.286;2023-04-06T06:14:08;2.75;;;1.00;;
72882;SDS011;61017;37.812;-122.286;2023-04-06T06:15:40;2.08;;;0.90;;
72882;SDS011;61017;37.812;-122.286;2023-04-06T06:17:11;2.25;;;0.90;;
72882;SDS011;61017;37.812;-122.286;2023-04-06T06:18:43;1.75;;;0.80;;
72882;SDS011;61017;37.812;-122.286;2023-04-06T06:20:15;2.40;;;0.88;;
72882;SDS011;61017;37.812;-122.286;2023-04-06T06:21:46;1.52;;;0.75;;
72882;SDS011;61017;37.812;-122.286;2023-04-06T06:23:18;2.97;;;0.80;;
72882;SDS011;61017;37.812;-122.286;2023-04-06T06:24:49;3.30;;;1.05;;
72882;SDS011;61017;37.812;-122.286;2023-04-06T06:26:21;2.53;;;1.05;;
72882;SDS011;61017;37.812;-122.286;2023-04-06T06:27:53;2.53;;;0.90;;
72882;SDS011;61017;37.812;-122.286;2023-04-06T06:29:24;2.45;;;0.80;;
72882;SDS011;61017;37.812;-122.286;2023-04-06T06:30:56;1.70;;;0.80;;
72882;SDS011;61017;37.812;-122.286;2023-04-06T06:32:27;2.00;;;1.13;;
72882;SDS011;61017;37.812;-122.286;2023-04-06T06:33:59;1.73;;;0.80;;
72882;SDS011;61017;37.812;-122.286;2023-04-06T06:35:30;2.70;;;1.00;;
72882;SDS011;61017;37.812;-122.286;2023-04-06T06:37:05;2.65;;;1.00;;
72882;SDS011;61017;37.812;-122.286;2023-04-06T06:38:37;2.67;;;0.93;;
72882;SDS011;61017;37.812;-122.286;2023-04-06T06:40:08;2.38;;;0.95;;
72882;SDS011;61017;37.812;-122.286;2023-04-06T06:41:41;2.08;;;0.90;;
72882;SDS011;61017;37.812;-122.286;2023-04-06T06:43:12;1.67;;;0.98;;
72882;SDS011;61017;37.812;-122.286;2023-04-06T06:44:44;1.83;;;0.90;;
72882;SDS011;61017;37.812;-122.286;2023-04-06T06:46:15;1.98;;;0.90;;
72882;SDS011;61017;37.812;-122.286;2023-04-06T06:47:47;2.75;;;0.82;;
72882;SDS011;61017;37.812;-122.286;2023-04-06T06:49:19;2.28;;;0.98;;
72882;SDS011;61017;37.812;-122.286;2023-04-06T06:50:50;1.63;;;0.80;;
72882;SDS011;61017;37.812;-122.286;2023-04-06T06:52:22;2.67;;;1.08;;
72882;SDS011;61017;37.812;-122.286;2023-04-06T06:53:54;2.58;;;0.90;;
72882;SDS011;61017;37.812;-122.286;2023-04-06T06:55:25;1.52;;;0.77;;
72882;SDS011;61017;37.812;-122.286;2023-04-06T06:56:57;1.60;;;0.70;;
72882;SDS011;61017;37.812;-122.286;2023-04-06T06:58:29;1.67;;;0.70;;
72882;SDS011;61017;37.812;-122.286;2023-04-06T07:00:00;2.15;;;0.88;;
72882;SDS011;61017;37.812;-122.286;2023-04-06T07:01:32;3.30;;;1.00;;
72882;SDS011;61017;37.812;-122.286;2023-04-06T07:03:04;3.23;;;0.90;;
72882;SDS011;61017;37.812;-122.286;2023-04-06T07:04:35;1.88;;;0.82;;
72882;SDS011;61017;37.812;-122.286;2023-04-06T07:06:07;1.98;;;1.05;;
72882;SDS011;61017;37.812;-122.286;2023-04-06T07:07:40;1.85;;;0.80;;
72882;SDS011;61017;37.812;-122.286;2023-04-06T07:09:11;2.25;;;0.90;;
72882;SDS011;61017;37.812;-122.286;2023-04-06T07:10:43;2.40;;;1.00;;
72882;SDS011;61017;37.812;-122.286;2023-04-06T07:12:14;2.08;;;0.95;;
72882;SDS011;61017;37.812;-122.286;2023-04-06T07:13:46;2.30;;;1.00;;
72882;SDS011;61017;37.812;-122.286;2023-04-06T07:15:18;2.42;;;1.02;;
72882;SDS011;61017;37.812;-122.286;2023-04-06T07:16:49;2.60;;;0.90;;
72882;SDS011;61017;37.812;-122.286;2023-04-06T07:18:21;2.20;;;1.05;;
72882;SDS011;61017;37.812;-122.286;2023-04-06T07:19:53;2.05;;;0.95;;
72882;SDS011;61017;37.812;-122.286;2023-04-06T07:21:25;2.47;;;0.90;;
72882;SDS011;61017;37.812;-122.286;2023-04-06T07:22:56;4.38;;;1.10;;
72882;SDS011;61017;37.812;-122.286;2023-04-06T07:24:28;3.05;;;0.90;;
72882;SDS011;61017;37.812;-122.286;2023-04-06T07:26:01;2.33;;;0.90;;
72882;SDS011;61017;37.812;-122.286;2023-04-06T07:27:32;3.45;;;1.00;;
72882;SDS011;61017;37.812;-122.286;2023-04-06T07:29:04;1.83;;;0.90;;
72882;SDS011;61017;37.812;-122.286;2023-04-06T07:30:36;3.13;;;1.10;;
72882;SDS011;61017;37.812;-122.286;2023-04-06T07:32:08;3.25;;;1.00;;
72882;SDS011;61017;37.812;-122.286;2023-04-06T07:33:39;2.33;;;1.23;;
72882;SDS011;61017;37.812;-122.286;2023-04-06T07:35:11;3.72;;;1.23;;
72882;SDS011;61017;37.812;-122.286;2023-04-06T07:36:42;3.10;;;1.13;;
72882;SDS011;61017;37.812;-122.286;2023-04-06T07:38:14;3.60;;;1.10;;
72882;SDS011;61017;37.812;-122.286;2023-04-06T07:39:45;3.22;;;1.10;;
72882;SDS011;61017;37.812;-122.286;2023-04-06T07:41:17;2.20;;;1.00;;
72882;SDS011;61017;37.812;-122.286;2023-04-06T07:42:49;3.92;;;1.20;;
72882;SDS011;61017;37.812;-122.286;2023-04-06T07:44:20;4.88;;;1.30;;
72882;SDS011;61017;37.812;-122.286;2023-04-06T07:45:52;3.47;;;1.00;;
72882;SDS011;61017;37.812;-122.286;2023-04-06T07:47:23;5.13;;;1.48;;
72882;SDS011;61017;37.812;-122.286;2023-04-06T07:48:56;4.55;;;1.15;;
72882;SDS011;61017;37.812;-122.286;2023-04-06T07:51:59;4.93;;;1.15;;
72882;SDS011;61017;37.812;-122.286;2023-04-06T07:53:31;3.72;;;1.27;;
72882;SDS011;61017;37.812;-122.286;2023-04-06T07:55:03;3.50;;;1.20;;
72882;SDS011;61017;37.812;-122.286;2023-04-06T07:56:34;5.22;;;1.50;;
72882;SDS011;61017;37.812;-122.286;2023-04-06T07:58:06;4.82;;;1.35;;
72882;SDS011;61017;37.812;-122.286;2023-04-06T07:59:37;6.22;;;1.55;;
72882;SDS011;61017;37.812;-122.286;2023-04-06T08:01:09;3.80;;;1.30;;
72882;SDS011;61017;37.812;-122.286;2023-04-06T08:02:41;5.22;;;1.33;;
72882;SDS011;61017;37.812;-122.286;2023-04-06T08:04:12;3.95;;;1.40;;
72882;SDS011;61017;37.812;-122.286;2023-04-06T08:05:44;4.18;;;1.40;;
72882;SDS011;61017;37.812;-122.286;2023-04-06T08:07:15;4.65;;;1.48;;
72882;SDS011;61017;37.812;-122.286;2023-04-06T08:08:47;5.82;;;1.50;;
72882;SDS011;61017;37.812;-122.286;2023-04-06T08:10:18;4.20;;;1.60;;
72882;SDS011;61017;37.812;-122.286;2023-04-06T08:11:50;4.50;;;1.27;;
72882;SDS011;61017;37.812;-122.286;2023-04-06T08:13:22;3.70;;;1.10;;
72882;SDS011;61017;37.812;-122.286;2023-04-06T08:14:53;5.28;;;1.50;;
72882;SDS011;61017;37.812;-122.286;2023-04-06T08:16:25;6.05;;;1.30;;
72882;SDS011;61017;37.812;-122.286;2023-04-06T08:17:56;7.45;;;1.50;;
72882;SDS011;61017;37.812;-122.286;2023-04-06T08:19:28;5.07;;;1.10;;
72882;SDS011;61017;37.812;-122.286;2023-04-06T08:20:59;5.47;;;1.58;;
72882;SDS011;61017;37.812;-122.286;2023-04-06T08:22:31;5.28;;;1.63;;
72882;SDS011;61017;37.812;-122.286;2023-04-06T08:24:03;4.05;;;1.33;;
72882;SDS011;61017;37.812;-122.286;2023-04-06T08:25:35;5.40;;;1.20;;
72882;SDS011;61017;37.812;-122.286;2023-04-06T08:27:07;9.98;;;1.83;;
72882;SDS011;61017;37.812;-122.286;2023-04-06T08:28:38;5.47;;;1.42;;
72882;SDS011;61017;37.812;-122.286;2023-04-06T08:30:10;5.05;;;1.50;;
72882;SDS011;61017;37.812;-122.286;2023-04-06T08:31:42;4.00;;;1.30;;
72882;SDS011;61017;37.812;-122.286;2023-04-06T08:33:13;3.83;;;1.60;;
72882;SDS011;61017;37.812;-122.286;2023-04-06T08:34:45;3.72;;;1.42;;
72882;SDS011;61017;37.812;-122.286;2023-04-06T08:36:18;4.50;;;1.30;;
72882;SDS011;61017;37.812;-122.286;2023-04-06T08:37:50;3.38;;;1.40;;
72882;SDS011;61017;37.812;-122.286;2023-04-06T08:39:21;4.40;;;1.38;;
72882;SDS011;61017;37.812;-122.286;2023-04-06T08:40:53;6.00;;;1.67;;
72882;SDS011;61017;37.812;-122.286;2023-04-06T08:42:24;4.72;;;1.60;;
72882;SDS011;61017;37.812;-122.286;2023-04-06T08:43:59;6.47;;;1.65;;
72882;SDS011;61017;37.812;-122.286;2023-04-06T08:45:32;4.97;;;1.48;;
72882;SDS011;61017;37.812;-122.286;2023-04-06T08:47:04;4.07;;;1.43;;
72882;SDS011;61017;37.812;-122.286;2023-04-06T08:48:36;3.85;;;1.40;;
72882;SDS011;61017;37.812;-122.286;2023-04-06T08:51:41;6.30;;;1.75;;
72882;SDS011;61017;37.812;-122.286;2023-04-06T08:53:13;5.95;;;1.73;;